MV Causeway Supplier — ZR2426 — position and weather

sailwx.info

Track history (hours):
 
Tides and Currents Weather Stations Pressure Air Temp Water Temp Dewpoint Dewpoint Depression Visibility Wind Speed Wind Dir Waves Ship Positions

MV Causeway Supplier

Last reported at 2016-Apr-27 18:32 UTC. Time now 2016-Apr-30 17:00 UTC.
Position S 29°52' E 031°03'.

Length 22 m; draft 2.7 m.

Type: . MMSI: 601041200.

Date/timePositionNaut miles runAvg speedWind from/ knotsBaromVisibWave heightAir tempDewpointWater temp
2016-Apr-27 18:32S 29°52' E 031°03'7 5.9
2016-Apr-27 17:25S 29°51' E 031°11'3 3.2
2016-Apr-27 16:33S 29°51' E 031°08'1 0.6
2016-Apr-27 15:33S 29°51' E 031°08'4 3.6
2016-Apr-27 14:33S 29°52' E 031°04'1 0.1
2016-Apr-26 15:33S 29°52' E 031°06'9 2.6
2016-Apr-26 12:15S 29°52' E 031°16'3 3.3
2016-Apr-26 11:29S 29°51' E 031°13'3 3.2
2016-Apr-26 10:33S 29°52' E 031°10'5 5.1
2016-Apr-26 09:34S 29°52' E 031°04'1 0.1
2016-Apr-25 14:32S 29°53' E 031°03'4 3.9
2016-Apr-25 13:25S 29°53' E 031°08'1 0.8
2016-Apr-25 12:06S 29°52' E 031°08'0 0.1
2016-Apr-25 11:34S 29°52' E 031°08'5 1.1
2016-Apr-25 07:09S 29°52' E 031°02'4 7.3
2016-Apr-25 06:33S 29°51' E 031°07'1 0.9
2016-Apr-25 05:33S 29°51' E 031°08'1 1.0
2016-Apr-25 04:33S 29°52' E 031°07'2 2.2
2016-Apr-25 03:33S 29°51' E 031°05'1 0.1
2016-Apr-24 17:33S 29°52' E 031°04'4 1.7
2016-Apr-24 15:29S 29°52' E 031°08'2 2.0
2016-Apr-24 14:26S 29°53' E 031°06'3 0.7
2016-Apr-24 09:11S 29°53' E 031°02'1 0.2
2016-Apr-24 04:33S 29°52' E 031°03'1 0.0
2016-Apr-23 11:04S 29°52' E 031°02'4 6.7
2016-Apr-23 10:33S 29°51' E 031°06'7 6.8
2016-Apr-23 09:33S 29°47' E 031°12'3 2.7
2016-Apr-23 08:30S 29°45' E 031°15'3 2.7
2016-Apr-23 07:32S 29°48' E 031°16'8 3.9
2016-Apr-23 05:33S 29°51' E 031°08'  
2016-Apr-18 14:21S 29°52' E 031°02'2 2.9
2016-Apr-18 13:33S 29°51' E 031°04'4 4.2
2016-Apr-18 12:32S 29°51' E 031°09'3 3.5
2016-Apr-18 11:33S 29°47' E 031°08'1 0.9
2016-Apr-18 10:33S 29°48' E 031°08'1 1.1
2016-Apr-18 09:33S 29°49' E 031°08'1 1.1
2016-Apr-18 08:33S 29°50' E 031°09'3 2.7
2016-Apr-18 07:33S 29°48' E 031°09'1 0.7
2016-Apr-18 06:33S 29°47' E 031°09'1 1.5
2016-Apr-18 05:33S 29°49' E 031°09'2 2.3
2016-Apr-18 04:33S 29°51' E 031°08'  
Track history (hours):
 
Tides and Currents Weather Stations Pressure Air Temp Water Temp Dewpoint Dewpoint Depression Visibility Wind Speed Wind Dir Waves Ship Positions

MV Causeway Supplier

Last reported at 2016-Apr-27 18:32 UTC. Time now 2016-Apr-30 17:00 UTC.
Position S 29°52' E 031°03'.

Length 22 m; draft 2.7 m.

Type: . MMSI: 601041200.

Date/timePositionNaut miles runAvg speedWind from/ knotsBaromVisibWave heightAir tempDewpointWater temp
2016-Apr-27 18:32S 29°52' E 031°03'7 5.9
2016-Apr-27 17:25S 29°51' E 031°11'3 3.2
2016-Apr-27 16:33S 29°51' E 031°08'1 0.6
2016-Apr-27 15:33S 29°51' E 031°08'4 3.6
2016-Apr-27 14:33S 29°52' E 031°04'1 0.1
2016-Apr-26 15:33S 29°52' E 031°06'9 2.6
2016-Apr-26 12:15S 29°52' E 031°16'3 3.3
2016-Apr-26 11:29S 29°51' E 031°13'3 3.2
2016-Apr-26 10:33S 29°52' E 031°10'5 5.1
2016-Apr-26 09:34S 29°52' E 031°04'1 0.1
2016-Apr-25 14:32S 29°53' E 031°03'4 3.9
2016-Apr-25 13:25S 29°53' E 031°08'1 0.8
2016-Apr-25 12:06S 29°52' E 031°08'0 0.1
2016-Apr-25 11:34S 29°52' E 031°08'5 1.1
2016-Apr-25 07:09S 29°52' E 031°02'4 7.3
2016-Apr-25 06:33S 29°51' E 031°07'1 0.9
2016-Apr-25 05:33S 29°51' E 031°08'1 1.0
2016-Apr-25 04:33S 29°52' E 031°07'2 2.2
2016-Apr-25 03:33S 29°51' E 031°05'1 0.1
2016-Apr-24 17:33S 29°52' E 031°04'4 1.7
2016-Apr-24 15:29S 29°52' E 031°08'2 2.0
2016-Apr-24 14:26S 29°53' E 031°06'3 0.7
2016-Apr-24 09:11S 29°53' E 031°02'1 0.2
2016-Apr-24 04:33S 29°52' E 031°03'1 0.0
2016-Apr-23 11:04S 29°52' E 031°02'4 6.7
2016-Apr-23 10:33S 29°51' E 031°06'7 6.8
2016-Apr-23 09:33S 29°47' E 031°12'3 2.7
2016-Apr-23 08:30S 29°45' E 031°15'3 2.7
2016-Apr-23 07:32S 29°48' E 031°16'8 3.9
2016-Apr-23 05:33S 29°51' E 031°08'  
2016-Apr-18 14:21S 29°52' E 031°02'2 2.9
2016-Apr-18 13:33S 29°51' E 031°04'4 4.2
2016-Apr-18 12:32S 29°51' E 031°09'3 3.5
2016-Apr-18 11:33S 29°47' E 031°08'1 0.9
2016-Apr-18 10:33S 29°48' E 031°08'1 1.1
2016-Apr-18 09:33S 29°49' E 031°08'1 1.1
2016-Apr-18 08:33S 29°50' E 031°09'3 2.7
2016-Apr-18 07:33S 29°48' E 031°09'1 0.7
2016-Apr-18 06:33S 29°47' E 031°09'1 1.5
2016-Apr-18 05:33S 29°49' E 031°09'2 2.3
2016-Apr-18 04:33S 29°51' E 031°08'  

Dump ship's entire track history